KALO/ALO METAR and TAF weather

Enter ICAO airport designator
Station Type Date Time Source
KALO METAR 2022/11/30 16:54 UTC NOAA

KALO 301654Z 30023G33KT 10SM OVC029 M06/M12 A3014 RMK AO2 PK WND 29033/1631 SLP221 T10561122


Station Type Date Time Source
KALO Decoded METAR 2022/11/30 16:54 UTC NOAA

WATERLOO MUNICIPAL AIRPORT, IA, United States (KALO) 42-33N 92-24W 264M
Nov 30, 2022 - 11:54 AM EST / 2022.11.30 1654 UTC
Wind: from the WNW (300 degrees) at 26 MPH (23 KT) gusting to 38 MPH (33 KT):0
Visibility: 10 mile(s):0
Sky conditions: overcast
Temperature: 21.9 F (-5.6 C)
Windchill: 5 F (-15 C):1
Dew Point: 10.0 F (-12.2 C)
Relative Humidity: 59%
Pressure (altimeter): 30.14 in. Hg (1020 hPa)
ob: KALO 301654Z 30023G33KT 10SM OVC029 M06/M12 A3014 RMK AO2 PK WND 29033/1631 SLP221 T10561122
cycle: 17

Station Type Date Time Source
KALO TAF 2022/11/30 18:30 UTC NOAA

TAF KALO 301727Z 3018/0118 29022G31KT P6SM BKN030
FM302000 28018G26KT P6SM SCT035
FM010100 28009KT P6SM SKC
FM011600 15011KT P6SM FEW250

Example: see airport list